sensor_id;sensor_type;location;lat;lon;timestamp;pressure;altitude;pressure_sealevel;temperature;humidity
67013;BME280;53926;47.406;19.188;2022-12-07T00:01:32;100312.59;;;-1.34;100.00
67013;BME280;53926;47.406;19.188;2022-12-07T00:04:02;100317.31;;;-1.30;100.00
67013;BME280;53926;47.406;19.188;2022-12-07T00:06:37;100320.16;;;-1.23;100.00
67013;BME280;53926;47.406;19.188;2022-12-07T00:09:09;100329.38;;;-1.72;100.00
67013;BME280;53926;47.406;19.188;2022-12-07T00:11:36;100329.94;;;-1.90;100.00
67013;BME280;53926;47.406;19.188;2022-12-07T00:14:06;100334.69;;;-2.06;100.00
67013;BME280;53926;47.406;19.188;2022-12-07T00:16:34;100328.66;;;-2.26;100.00
67013;BME280;53926;47.406;19.188;2022-12-07T00:19:01;100319.75;;;-2.32;100.00
67013;BME280;53926;47.406;19.188;2022-12-07T00:21:30;100323.22;;;-2.54;100.00
67013;BME280;53926;47.406;19.188;2022-12-07T00:23:57;100321.41;;;-2.42;100.00
67013;BME280;53926;47.406;19.188;2022-12-07T00:26:27;100323.50;;;-2.80;100.00
67013;BME280;53926;47.406;19.188;2022-12-07T00:28:57;100312.84;;;-2.74;100.00
67013;BME280;53926;47.406;19.188;2022-12-07T00:31:29;100312.34;;;-2.67;100.00
67013;BME280;53926;47.406;19.188;2022-12-07T00:33:57;100311.78;;;-2.39;100.00
67013;BME280;53926;47.406;19.188;2022-12-07T00:36:24;100307.97;;;-2.77;100.00
67013;BME280;53926;47.406;19.188;2022-12-07T00:38:54;100316.13;;;-2.94;100.00
67013;BME280;53926;47.406;19.188;2022-12-07T00:41:23;100302.53;;;-2.72;100.00
67013;BME280;53926;47.406;19.188;2022-12-07T00:43:51;100305.97;;;-2.62;100.00
67013;BME280;53926;47.406;19.188;2022-12-07T00:46:19;100306.09;;;-2.63;100.00
67013;BME280;53926;47.406;19.188;2022-12-07T00:48:47;100294.69;;;-2.59;100.00
67013;BME280;53926;47.406;19.188;2022-12-07T00:51:15;100300.09;;;-2.20;100.00
67013;BME280;53926;47.406;19.188;2022-12-07T00:53:42;100294.28;;;-2.22;100.00
67013;BME280;53926;47.406;19.188;2022-12-07T00:56:12;100303.69;;;-2.44;100.00
67013;BME280;53926;47.406;19.188;2022-12-07T00:58:39;100291.66;;;-2.53;100.00
67013;BME280;53926;47.406;19.188;2022-12-07T01:01:07;100283.78;;;-2.50;100.00
67013;BME280;53926;47.406;19.188;2022-12-07T01:03:34;100285.44;;;-2.60;100.00
67013;BME280;53926;47.406;19.188;2022-12-07T01:06:02;100282.41;;;-2.54;100.00
67013;BME280;53926;47.406;19.188;2022-12-07T01:08:29;100292.84;;;-2.57;100.00
67013;BME280;53926;47.406;19.188;2022-12-07T01:11:04;100297.09;;;-2.25;100.00
67013;BME280;53926;47.406;19.188;2022-12-07T01:13:33;100306.50;;;-2.26;100.00
67013;BME280;53926;47.406;19.188;2022-12-07T01:16:03;100301.59;;;-2.39;100.00
67013;BME280;53926;47.406;19.188;2022-12-07T01:18:32;100304.00;;;-2.70;100.00
67013;BME280;53926;47.406;19.188;2022-12-07T01:23:26;100299.91;;;-2.93;100.00
67013;BME280;53926;47.406;19.188;2022-12-07T01:26:00;100300.09;;;-2.74;100.00
67013;BME280;53926;47.406;19.188;2022-12-07T01:28:29;100298.03;;;-2.91;100.00
67013;BME280;53926;47.406;19.188;2022-12-07T01:31:02;100290.31;;;-3.01;100.00
67013;BME280;53926;47.406;19.188;2022-12-07T01:33:32;100292.19;;;-3.03;100.00
67013;BME280;53926;47.406;19.188;2022-12-07T01:36:19;100282.00;;;-2.71;100.00
67013;BME280;53926;47.406;19.188;2022-12-07T01:38:49;100274.31;;;-2.92;100.00
67013;BME280;53926;47.406;19.188;2022-12-07T01:41:18;100278.72;;;-2.94;100.00
67013;BME280;53926;47.406;19.188;2022-12-07T01:44:20;100270.97;;;-2.92;100.00
67013;BME280;53926;47.406;19.188;2022-12-07T01:49:37;100282.50;;;-2.88;100.00
67013;BME280;53926;47.406;19.188;2022-12-07T01:52:29;100277.16;;;-2.74;100.00
67013;BME280;53926;47.406;19.188;2022-12-07T01:55:01;100267.56;;;-2.81;100.00
67013;BME280;53926;47.406;19.188;2022-12-07T01:57:30;100268.16;;;-2.89;100.00
67013;BME280;53926;47.406;19.188;2022-12-07T01:59:57;100278.72;;;-3.05;100.00
67013;BME280;53926;47.406;19.188;2022-12-07T02:02:31;100271.53;;;-2.89;100.00
67013;BME280;53926;47.406;19.188;2022-12-07T02:05:01;100269.97;;;-2.47;100.00
67013;BME280;53926;47.406;19.188;2022-12-07T02:07:28;100270.78;;;-2.26;100.00
67013;BME280;53926;47.406;19.188;2022-12-07T02:09:57;100271.34;;;-2.22;100.00
67013;BME280;53926;47.406;19.188;2022-12-07T02:12:24;100268.25;;;-2.26;100.00
67013;BME280;53926;47.406;19.188;2022-12-07T02:14:51;100273.47;;;-2.06;100.00
67013;BME280;53926;47.406;19.188;2022-12-07T02:17:20;100276.47;;;-1.91;100.00
67013;BME280;53926;47.406;19.188;2022-12-07T02:20:08;100266.00;;;-1.57;100.00
67013;BME280;53926;47.406;19.188;2022-12-07T02:25:42;100270.81;;;-1.23;100.00
67013;BME280;53926;47.406;19.188;2022-12-07T02:30:49;100270.03;;;-1.04;100.00
67013;BME280;53926;47.406;19.188;2022-12-07T02:33:26;100272.47;;;-1.03;100.00
67013;BME280;53926;47.406;19.188;2022-12-07T02:36:02;100269.38;;;-0.97;100.00
67013;BME280;53926;47.406;19.188;2022-12-07T02:41:22;100266.84;;;-0.97;100.00
67013;BME280;53926;47.406;19.188;2022-12-07T02:43:57;100260.75;;;-0.96;100.00
67013;BME280;53926;47.406;19.188;2022-12-07T02:46:31;100263.34;;;-0.86;100.00
67013;BME280;53926;47.406;19.188;2022-12-07T02:49:00;100272.34;;;-0.82;100.00
67013;BME280;53926;47.406;19.188;2022-12-07T02:51:32;100273.97;;;-0.81;100.00
67013;BME280;53926;47.406;19.188;2022-12-07T02:54:00;100273.97;;;-0.71;100.00
67013;BME280;53926;47.406;19.188;2022-12-07T02:56:47;100271.66;;;-0.74;100.00
67013;BME280;53926;47.406;19.188;2022-12-07T03:15:54;100244.19;;;-0.33;100.00
67013;BME280;53926;47.406;19.188;2022-12-07T03:18:25;100257.78;;;-0.32;100.00
67013;BME280;53926;47.406;19.188;2022-12-07T03:20:55;100247.94;;;-0.37;100.00
67013;BME280;53926;47.406;19.188;2022-12-07T03:23:25;100248.38;;;-0.32;100.00
67013;BME280;53926;47.406;19.188;2022-12-07T03:25:56;100250.37;;;-0.26;100.00
67013;BME280;53926;47.406;19.188;2022-12-07T03:28:33;100241.75;;;-0.34;100.00
67013;BME280;53926;47.406;19.188;2022-12-07T03:33:44;100246.97;;;-0.26;100.00
67013;BME280;53926;47.406;19.188;2022-12-07T03:36:23;100249.00;;;-0.20;100.00
67013;BME280;53926;47.406;19.188;2022-12-07T03:38:59;100240.63;;;-0.12;100.00
67013;BME280;53926;47.406;19.188;2022-12-07T03:41:31;100246.00;;;-0.06;100.00
67013;BME280;53926;47.406;19.188;2022-12-07T03:44:00;100244.81;;;-0.11;100.00
67013;BME280;53926;47.406;19.188;2022-12-07T03:49:30;100245.59;;;-0.11;100.00
67013;BME280;53926;47.406;19.188;2022-12-07T03:54:57;100242.59;;;0.04;100.00
67013;BME280;53926;47.406;19.188;2022-12-07T03:57:27;100231.84;;;0.00;100.00
67013;BME280;53926;47.406;19.188;2022-12-07T03:59:56;100230.75;;;0.03;100.00
67013;BME280;53926;47.406;19.188;2022-12-07T04:02:26;100239.25;;;0.03;100.00
67013;BME280;53926;47.406;19.188;2022-12-07T04:04:54;100247.16;;;0.10;100.00
67013;BME280;53926;47.406;19.188;2022-12-07T04:07:21;100243.00;;;0.09;100.00
67013;BME280;53926;47.406;19.188;2022-12-07T04:09:48;100250.72;;;-0.01;100.00
67013;BME280;53926;47.406;19.188;2022-12-07T04:12:15;100254.06;;;0.09;100.00
67013;BME280;53926;47.406;19.188;2022-12-07T04:14:41;100251.88;;;0.14;100.00
67013;BME280;53926;47.406;19.188;2022-12-07T04:17:08;100263.56;;;0.27;100.00
67013;BME280;53926;47.406;19.188;2022-12-07T04:19:35;100253.53;;;0.33;100.00
67013;BME280;53926;47.406;19.188;2022-12-07T04:22:03;100256.78;;;0.35;100.00
67013;BME280;53926;47.406;19.188;2022-12-07T04:24:31;100260.63;;;0.49;100.00
67013;BME280;53926;47.406;19.188;2022-12-07T04:26:57;100260.34;;;0.52;100.00
67013;BME280;53926;47.406;19.188;2022-12-07T04:29:25;100261.28;;;0.51;100.00
67013;BME280;53926;47.406;19.188;2022-12-07T04:31:52;100266.38;;;0.24;100.00
67013;BME280;53926;47.406;19.188;2022-12-07T04:34:19;100260.06;;;0.28;100.00
67013;BME280;53926;47.406;19.188;2022-12-07T04:36:47;100265.91;;;0.38;100.00
67013;BME280;53926;47.406;19.188;2022-12-07T04:41:51;100273.59;;;0.48;100.00
67013;BME280;53926;47.406;19.188;2022-12-07T04:44:19;100260.72;;;0.58;100.00
67013;BME280;53926;47.406;19.188;2022-12-07T04:46:46;100266.25;;;0.53;100.00
67013;BME280;53926;47.406;19.188;2022-12-07T04:49:15;100268.69;;;0.55;100.00
67013;BME280;53926;47.406;19.188;2022-12-07T04:51:42;100269.59;;;0.35;100.00
67013;BME280;53926;47.406;19.188;2022-12-07T04:54:10;100270.81;;;0.31;100.00
67013;BME280;53926;47.406;19.188;2022-12-07T04:56:37;100260.50;;;0.41;100.00
67013;BME280;53926;47.406;19.188;2022-12-07T04:59:04;100257.25;;;0.49;100.00
67013;BME280;53926;47.406;19.188;2022-12-07T05:01:30;100255.22;;;0.52;100.00
67013;BME280;53926;47.406;19.188;2022-12-07T05:03:57;100254.37;;;0.52;100.00
67013;BME280;53926;47.406;19.188;2022-12-07T05:06:24;100247.53;;;0.52;100.00
67013;BME280;53926;47.406;19.188;2022-12-07T05:08:51;100256.06;;;0.43;100.00
67013;BME280;53926;47.406;19.188;2022-12-07T05:11:20;100255.66;;;0.48;100.00
67013;BME280;53926;47.406;19.188;2022-12-07T05:14:16;100258.72;;;0.51;100.00
67013;BME280;53926;47.406;19.188;2022-12-07T05:16:47;100251.03;;;0.51;100.00
67013;BME280;53926;47.406;19.188;2022-12-07T05:19:16;100257.34;;;0.57;100.00
67013;BME280;53926;47.406;19.188;2022-12-07T05:21:43;100258.66;;;0.33;100.00
67013;BME280;53926;47.406;19.188;2022-12-07T05:24:11;100253.25;;;0.37;100.00
67013;BME280;53926;47.406;19.188;2022-12-07T05:26:39;100254.94;;;0.28;100.00
67013;BME280;53926;47.406;19.188;2022-12-07T05:29:05;100258.91;;;0.40;100.00
67013;BME280;53926;47.406;19.188;2022-12-07T05:31:32;100248.75;;;0.48;100.00
67013;BME280;53926;47.406;19.188;2022-12-07T05:34:01;100263.69;;;0.53;100.00
67013;BME280;53926;47.406;19.188;2022-12-07T05:36:28;100265.84;;;0.58;100.00
67013;BME280;53926;47.406;19.188;2022-12-07T05:38:58;100274.37;;;0.48;100.00
67013;BME280;53926;47.406;19.188;2022-12-07T05:41:25;100266.97;;;0.45;100.00
67013;BME280;53926;47.406;19.188;2022-12-07T05:44:10;100272.09;;;0.45;100.00
67013;BME280;53926;47.406;19.188;2022-12-07T05:46:37;100269.91;;;0.50;100.00
67013;BME280;53926;47.406;19.188;2022-12-07T05:49:03;100273.88;;;0.63;100.00
67013;BME280;53926;47.406;19.188;2022-12-07T05:51:30;100267.69;;;0.65;100.00
67013;BME280;53926;47.406;19.188;2022-12-07T05:53:56;100265.56;;;0.61;100.00
67013;BME280;53926;47.406;19.188;2022-12-07T05:56:23;100270.19;;;0.47;100.00
67013;BME280;53926;47.406;19.188;2022-12-07T05:58:50;100255.59;;;0.58;100.00
67013;BME280;53926;47.406;19.188;2022-12-07T06:01:35;100265.19;;;0.56;100.00
67013;BME280;53926;47.406;19.188;2022-12-07T06:04:02;100260.78;;;0.66;100.00
67013;BME280;53926;47.406;19.188;2022-12-07T06:06:31;100255.94;;;0.63;100.00
67013;BME280;53926;47.406;19.188;2022-12-07T06:08:58;100259.72;;;0.68;100.00
67013;BME280;53926;47.406;19.188;2022-12-07T06:11:25;100264.59;;;0.62;100.00
67013;BME280;53926;47.406;19.188;2022-12-07T06:14:10;100257.72;;;0.62;100.00
67013;BME280;53926;47.406;19.188;2022-12-07T06:16:36;100246.38;;;0.65;100.00
67013;BME280;53926;47.406;19.188;2022-12-07T06:19:03;100248.81;;;0.66;100.00
67013;BME280;53926;47.406;19.188;2022-12-07T06:21:30;100244.19;;;0.70;100.00
67013;BME280;53926;47.406;19.188;2022-12-07T06:23:56;100254.00;;;0.75;100.00
67013;BME280;53926;47.406;19.188;2022-12-07T06:26:25;100252.81;;;0.69;100.00
67013;BME280;53926;47.406;19.188;2022-12-07T06:28:52;100248.88;;;0.75;100.00
67013;BME280;53926;47.406;19.188;2022-12-07T06:31:18;100248.09;;;0.74;100.00
67013;BME280;53926;47.406;19.188;2022-12-07T06:33:45;100249.81;;;0.74;100.00
67013;BME280;53926;47.406;19.188;2022-12-07T06:36:12;100261.03;;;0.73;100.00
67013;BME280;53926;47.406;19.188;2022-12-07T06:38:38;100251.94;;;0.78;100.00
67013;BME280;53926;47.406;19.188;2022-12-07T06:41:05;100258.34;;;0.74;100.00
67013;BME280;53926;47.406;19.188;2022-12-07T06:43:32;100253.06;;;0.76;100.00
67013;BME280;53926;47.406;19.188;2022-12-07T06:46:00;100255.19;;;0.80;100.00
67013;BME280;53926;47.406;19.188;2022-12-07T06:48:26;100252.62;;;0.80;100.00
67013;BME280;53926;47.406;19.188;2022-12-07T06:50:53;100251.66;;;0.81;100.00
67013;BME280;53926;47.406;19.188;2022-12-07T06:53:21;100263.59;;;0.91;100.00
67013;BME280;53926;47.406;19.188;2022-12-07T06:55:48;100271.53;;;0.97;100.00
67013;BME280;53926;47.406;19.188;2022-12-07T06:58:15;100262.38;;;0.95;100.00
67013;BME280;53926;47.406;19.188;2022-12-07T07:00:43;100265.53;;;0.88;100.00
67013;BME280;53926;47.406;19.188;2022-12-07T07:03:10;100271.00;;;0.94;100.00
67013;BME280;53926;47.406;19.188;2022-12-07T07:05:36;100266.03;;;0.92;100.00
67013;BME280;53926;47.406;19.188;2022-12-07T07:08:03;100271.75;;;1.04;100.00
67013;BME280;53926;47.406;19.188;2022-12-07T07:10:48;100277.81;;;1.03;100.00
67013;BME280;53926;47.406;19.188;2022-12-07T07:13:14;100268.16;;;0.97;100.00
67013;BME280;53926;47.406;19.188;2022-12-07T07:15:41;100272.19;;;0.99;100.00
67013;BME280;53926;47.406;19.188;2022-12-07T07:18:08;100270.06;;;0.95;100.00
67013;BME280;53926;47.406;19.188;2022-12-07T07:20:35;100265.00;;;1.03;100.00
67013;BME280;53926;47.406;19.188;2022-12-07T07:23:02;100275.69;;;0.98;100.00
67013;BME280;53926;47.406;19.188;2022-12-07T07:25:28;100281.22;;;1.21;100.00
67013;BME280;53926;47.406;19.188;2022-12-07T07:27:55;100274.50;;;1.20;100.00
67013;BME280;53926;47.406;19.188;2022-12-07T07:30:22;100280.41;;;1.39;100.00
67013;BME280;53926;47.406;19.188;2022-12-07T07:32:48;100276.28;;;1.46;100.00
67013;BME280;53926;47.406;19.188;2022-12-07T07:35:15;100275.41;;;1.55;100.00
67013;BME280;53926;47.406;19.188;2022-12-07T07:37:42;100279.22;;;1.51;100.00
67013;BME280;53926;47.406;19.188;2022-12-07T07:40:09;100279.94;;;1.61;100.00
67013;BME280;53926;47.406;19.188;2022-12-07T07:42:36;100280.19;;;1.50;100.00
67013;BME280;53926;47.406;19.188;2022-12-07T07:45:03;100287.19;;;1.66;100.00
67013;BME280;53926;47.406;19.188;2022-12-07T07:47:30;100283.25;;;1.54;100.00
67013;BME280;53926;47.406;19.188;2022-12-07T07:49:57;100281.56;;;1.63;100.00
67013;BME280;53926;47.406;19.188;2022-12-07T07:52:24;100283.22;;;1.72;100.00
67013;BME280;53926;47.406;19.188;2022-12-07T07:54:50;100283.88;;;1.74;100.00
67013;BME280;53926;47.406;19.188;2022-12-07T07:57:17;100283.84;;;1.92;100.00
67013;BME280;53926;47.406;19.188;2022-12-07T07:59:44;100283.19;;;1.90;100.00
67013;BME280;53926;47.406;19.188;2022-12-07T08:02:15;100270.53;;;1.96;100.00
67013;BME280;53926;47.406;19.188;2022-12-07T08:04:42;100282.88;;;1.93;100.00
67013;BME280;53926;47.406;19.188;2022-12-07T08:07:09;100274.66;;;2.15;100.00
67013;BME280;53926;47.406;19.188;2022-12-07T08:09:36;100285.38;;;2.11;100.00
67013;BME280;53926;47.406;19.188;2022-12-07T08:12:03;100281.34;;;2.35;100.00
67013;BME280;53926;47.406;19.188;2022-12-07T08:14:29;100278.34;;;2.47;100.00
67013;BME280;53926;47.406;19.188;2022-12-07T08:16:56;100285.72;;;2.50;100.00
67013;BME280;53926;47.406;19.188;2022-12-07T08:19:23;100282.75;;;2.63;100.00
67013;BME280;53926;47.406;19.188;2022-12-07T08:21:50;100278.88;;;2.59;100.00
67013;BME280;53926;47.406;19.188;2022-12-07T08:24:16;100287.87;;;2.63;100.00
67013;BME280;53926;47.406;19.188;2022-12-07T08:26:43;100282.50;;;2.99;100.00
67013;BME280;53926;47.406;19.188;2022-12-07T08:29:10;100295.38;;;3.08;100.00
67013;BME280;53926;47.406;19.188;2022-12-07T08:31:37;100280.91;;;3.15;100.00
67013;BME280;53926;47.406;19.188;2022-12-07T08:34:04;100289.13;;;3.43;100.00
67013;BME280;53926;47.406;19.188;2022-12-07T08:36:30;100279.31;;;3.06;100.00
67013;BME280;53926;47.406;19.188;2022-12-07T08:38:57;100288.81;;;3.46;100.00
67013;BME280;53926;47.406;19.188;2022-12-07T08:41:44;100276.06;;;3.86;100.00
67013;BME280;53926;47.406;19.188;2022-12-07T08:44:10;100288.47;;;3.90;100.00
67013;BME280;53926;47.406;19.188;2022-12-07T08:46:40;100283.66;;;3.79;100.00
67013;BME280;53926;47.406;19.188;2022-12-07T08:49:13;100297.72;;;4.24;100.00
67013;BME280;53926;47.406;19.188;2022-12-07T08:51:40;100290.88;;;4.48;100.00
67013;BME280;53926;47.406;19.188;2022-12-07T08:54:10;100290.88;;;4.48;100.00
67013;BME280;53926;47.406;19.188;2022-12-07T08:56:37;100288.25;;;4.88;100.00
67013;BME280;53926;47.406;19.188;2022-12-07T08:59:05;100288.81;;;5.06;100.00
67013;BME280;53926;47.406;19.188;2022-12-07T09:01:32;100300.41;;;5.10;100.00
67013;BME280;53926;47.406;19.188;2022-12-07T09:03:59;100295.13;;;5.27;100.00
67013;BME280;53926;47.406;19.188;2022-12-07T09:06:26;100295.34;;;5.40;100.00
67013;BME280;53926;47.406;19.188;2022-12-07T09:08:57;100301.53;;;5.54;100.00
67013;BME280;53926;47.406;19.188;2022-12-07T09:11:24;100291.75;;;6.17;100.00
67013;BME280;53926;47.406;19.188;2022-12-07T09:13:54;100294.97;;;6.04;100.00
67013;BME280;53926;47.406;19.188;2022-12-07T09:16:21;100295.41;;;6.23;100.00
67013;BME280;53926;47.406;19.188;2022-12-07T09:18:48;100280.31;;;6.41;100.00
67013;BME280;53926;47.406;19.188;2022-12-07T09:21:15;100283.88;;;6.55;100.00
67013;BME280;53926;47.406;19.188;2022-12-07T09:23:42;100276.69;;;6.21;100.00
67013;BME280;53926;47.406;19.188;2022-12-07T09:26:09;100287.19;;;6.49;100.00
67013;BME280;53926;47.406;19.188;2022-12-07T09:28:36;100280.53;;;5.34;100.00
67013;BME280;53926;47.406;19.188;2022-12-07T09:31:04;100277.34;;;5.70;100.00
67013;BME280;53926;47.406;19.188;2022-12-07T09:34:00;100283.34;;;5.85;100.00
67013;BME280;53926;47.406;19.188;2022-12-07T09:36:28;100283.16;;;6.61;100.00
67013;BME280;53926;47.406;19.188;2022-12-07T09:38:55;100283.34;;;5.85;100.00
67013;BME280;53926;47.406;19.188;2022-12-07T09:41:22;100274.53;;;6.09;100.00
67013;BME280;53926;47.406;19.188;2022-12-07T09:43:51;100271.16;;;6.75;100.00
67013;BME280;53926;47.406;19.188;2022-12-07T09:46:20;100273.28;;;6.50;100.00
67013;BME280;53926;47.406;19.188;2022-12-07T09:48:48;100268.88;;;6.66;100.00
67013;BME280;53926;47.406;19.188;2022-12-07T09:51:19;100264.94;;;6.91;100.00
67013;BME280;53926;47.406;19.188;2022-12-07T09:53:52;100265.25;;;7.25;100.00
67013;BME280;53926;47.406;19.188;2022-12-07T09:56:20;100267.34;;;6.93;100.00
67013;BME280;53926;47.406;19.188;2022-12-07T09:58:49;100270.03;;;7.00;100.00
67013;BME280;53926;47.406;19.188;2022-12-07T10:01:21;100266.31;;;6.87;100.00
67013;BME280;53926;47.406;19.188;2022-12-07T10:04:00;100263.59;;;6.74;100.00
67013;BME280;53926;47.406;19.188;2022-12-07T10:06:28;100264.09;;;6.84;100.00
67013;BME280;53926;47.406;19.188;2022-12-07T10:08:54;100261.25;;;7.01;100.00
67013;BME280;53926;47.406;19.188;2022-12-07T10:11:21;100258.28;;;7.25;100.00
67013;BME280;53926;47.406;19.188;2022-12-07T10:13:51;100253.41;;;7.65;100.00
67013;BME280;53926;47.406;19.188;2022-12-07T10:16:39;100258.22;;;7.68;100.00
67013;BME280;53926;47.406;19.188;2022-12-07T10:22:04;100242.59;;;7.55;100.00
67013;BME280;53926;47.406;19.188;2022-12-07T10:24:31;100241.22;;;7.31;100.00
67013;BME280;53926;47.406;19.188;2022-12-07T10:26:58;100244.28;;;7.41;100.00
67013;BME280;53926;47.406;19.188;2022-12-07T10:29:31;100247.63;;;7.35;100.00
67013;BME280;53926;47.406;19.188;2022-12-07T10:32:45;100237.88;;;6.72;100.00
67013;BME280;53926;47.406;19.188;2022-12-07T10:34:46;100246.19;;;7.32;100.00
67013;BME280;53926;47.406;19.188;2022-12-07T10:37:19;100235.72;;;7.19;100.00
67013;BME280;53926;47.406;19.188;2022-12-07T10:39:56;100238.19;;;7.56;100.00
67013;BME280;53926;47.406;19.188;2022-12-07T10:42:29;100248.09;;;7.45;100.00
67013;BME280;53926;47.406;19.188;2022-12-07T10:45:16;100249.41;;;7.13;100.00
67013;BME280;53926;47.406;19.188;2022-12-07T10:56:01;100229.31;;;7.37;100.00
67013;BME280;53926;47.406;19.188;2022-12-07T11:01:26;100225.09;;;7.99;100.00
67013;BME280;53926;47.406;19.188;2022-12-07T11:07:10;100221.13;;;7.68;100.00
67013;BME280;53926;47.406;19.188;2022-12-07T11:15:17;100228.06;;;7.32;100.00
67013;BME280;53926;47.406;19.188;2022-12-07T11:32:47;100194.53;;;7.87;100.00
67013;BME280;53926;47.406;19.188;2022-12-07T11:38:18;100200.66;;;8.15;99.24
67013;BME280;53926;47.406;19.188;2022-12-07T11:40:58;100201.72;;;8.34;98.88
67013;BME280;53926;47.406;19.188;2022-12-07T11:44:02;100203.25;;;8.76;97.16
67013;BME280;53926;47.406;19.188;2022-12-07T11:51:39;100192.72;;;7.88;99.00
67013;BME280;53926;47.406;19.188;2022-12-07T11:54:21;100195.56;;;7.58;100.00
67013;BME280;53926;47.406;19.188;2022-12-07T11:56:51;100195.41;;;7.66;100.00
67013;BME280;53926;47.406;19.188;2022-12-07T11:59:25;100193.81;;;7.65;100.00
67013;BME280;53926;47.406;19.188;2022-12-07T12:02:02;100196.94;;;7.89;100.00
67013;BME280;53926;47.406;19.188;2022-12-07T12:08:26;100206.66;;;7.24;97.71
67013;BME280;53926;47.406;19.188;2022-12-07T12:14:46;100198.28;;;6.72;96.53
67013;BME280;53926;47.406;19.188;2022-12-07T12:19:55;100198.41;;;7.35;94.09
67013;BME280;53926;47.406;19.188;2022-12-07T12:22:33;100192.38;;;6.78;98.52
67013;BME280;53926;47.406;19.188;2022-12-07T12:25:05;100187.69;;;6.30;100.00
67013;BME280;53926;47.406;19.188;2022-12-07T12:27:37;100176.88;;;6.63;100.00
67013;BME280;53926;47.406;19.188;2022-12-07T12:33:04;100170.62;;;7.01;95.71
67013;BME280;53926;47.406;19.188;2022-12-07T12:35:36;100173.06;;;6.59;97.35
67013;BME280;53926;47.406;19.188;2022-12-07T12:40:51;100163.72;;;6.58;100.00
67013;BME280;53926;47.406;19.188;2022-12-07T12:43:44;100162.22;;;6.49;98.49
67013;BME280;53926;47.406;19.188;2022-12-07T12:51:56;100157.16;;;6.04;98.01
67013;BME280;53926;47.406;19.188;2022-12-07T12:57:12;100152.87;;;5.96;96.81
67013;BME280;53926;47.406;19.188;2022-12-07T12:59:56;100154.94;;;5.86;97.84
67013;BME280;53926;47.406;19.188;2022-12-07T13:10:39;100154.75;;;6.02;98.28
67013;BME280;53926;47.406;19.188;2022-12-07T13:23:51;100174.34;;;6.48;96.30
67013;BME280;53926;47.406;19.188;2022-12-07T13:26:38;100172.94;;;6.46;97.11
67013;BME280;53926;47.406;19.188;2022-12-07T13:29:16;100168.78;;;6.30;98.44
67013;BME280;53926;47.406;19.188;2022-12-07T13:31:48;100171.28;;;6.23;98.53
67013;BME280;53926;47.406;19.188;2022-12-07T13:34:39;100171.84;;;6.18;98.22
67013;BME280;53926;47.406;19.188;2022-12-07T13:37:25;100169.56;;;6.08;97.46
67013;BME280;53926;47.406;19.188;2022-12-07T13:40:05;100164.66;;;5.99;98.52
67013;BME280;53926;47.406;19.188;2022-12-07T13:42:43;100167.50;;;6.04;98.48
67013;BME280;53926;47.406;19.188;2022-12-07T13:45:37;100175.59;;;5.86;100.00
67013;BME280;53926;47.406;19.188;2022-12-07T13:48:32;100179.06;;;5.78;100.00
67013;BME280;53926;47.406;19.188;2022-12-07T13:51:02;100170.88;;;5.60;100.00
67013;BME280;53926;47.406;19.188;2022-12-07T13:53:29;100174.97;;;5.54;100.00
67013;BME280;53926;47.406;19.188;2022-12-07T13:55:58;100175.41;;;5.43;100.00
67013;BME280;53926;47.406;19.188;2022-12-07T13:58:27;100175.31;;;5.51;100.00
67013;BME280;53926;47.406;19.188;2022-12-07T14:00:56;100184.84;;;5.50;100.00
67013;BME280;53926;47.406;19.188;2022-12-07T14:03:34;100183.16;;;5.43;99.88
67013;BME280;53926;47.406;19.188;2022-12-07T14:06:14;100187.50;;;5.27;99.95
67013;BME280;53926;47.406;19.188;2022-12-07T14:08:42;100182.41;;;5.34;97.66
67013;BME280;53926;47.406;19.188;2022-12-07T14:11:18;100191.59;;;5.36;96.99
67013;BME280;53926;47.406;19.188;2022-12-07T14:13:57;100189.34;;;5.18;97.33
67013;BME280;53926;47.406;19.188;2022-12-07T14:16:30;100180.84;;;5.10;97.72
67013;BME280;53926;47.406;19.188;2022-12-07T14:18:59;100191.66;;;5.13;97.81
67013;BME280;53926;47.406;19.188;2022-12-07T14:21:28;100195.88;;;5.06;98.27
67013;BME280;53926;47.406;19.188;2022-12-07T14:24:18;100188.41;;;5.11;96.26
67013;BME280;53926;47.406;19.188;2022-12-07T14:26:47;100191.66;;;5.13;97.28
67013;BME280;53926;47.406;19.188;2022-12-07T14:29:30;100202.87;;;4.97;97.70
67013;BME280;53926;47.406;19.188;2022-12-07T14:32:19;100192.69;;;5.04;96.93
67013;BME280;53926;47.406;19.188;2022-12-07T14:34:57;100194.75;;;4.86;99.59
67013;BME280;53926;47.406;19.188;2022-12-07T14:37:25;100198.03;;;4.79;99.85
67013;BME280;53926;47.406;19.188;2022-12-07T14:39:52;100195.97;;;4.75;100.00
67013;BME280;53926;47.406;19.188;2022-12-07T14:42:19;100198.72;;;4.73;99.68
67013;BME280;53926;47.406;19.188;2022-12-07T14:44:46;100199.06;;;4.70;100.00
67013;BME280;53926;47.406;19.188;2022-12-07T14:47:13;100201.81;;;4.69;100.00
67013;BME280;53926;47.406;19.188;2022-12-07T14:49:59;100205.69;;;4.64;100.00
67013;BME280;53926;47.406;19.188;2022-12-07T14:52:31;100204.47;;;4.52;100.00
67013;BME280;53926;47.406;19.188;2022-12-07T14:55:29;100212.59;;;4.41;100.00
67013;BME280;53926;47.406;19.188;2022-12-07T14:57:57;100207.34;;;4.26;100.00
67013;BME280;53926;47.406;19.188;2022-12-07T15:00:26;100207.41;;;4.09;100.00
67013;BME280;53926;47.406;19.188;2022-12-07T15:02:53;100208.88;;;4.04;100.00
67013;BME280;53926;47.406;19.188;2022-12-07T15:05:20;100214.38;;;3.92;100.00
67013;BME280;53926;47.406;19.188;2022-12-07T15:07:48;100220.37;;;3.85;100.00